createdAt,value
2023-01-19T20:36:56.582Z,1005.95
2023-01-19T20:37:06.250Z,1005.95
2023-01-19T20:37:16.307Z,1005.95
2023-01-19T20:37:26.477Z,1005.98
2023-01-19T20:37:36.471Z,1005.98
2023-01-19T20:37:46.234Z,1006.03
2023-01-19T20:37:56.470Z,1005.98
2023-01-19T20:38:06.474Z,1006.04
2023-01-19T20:38:16.480Z,1006.04
2023-01-19T20:38:26.469Z,1006.06
2023-01-19T20:38:36.476Z,1006.10
2023-01-19T20:38:46.523Z,1006.10
2023-01-19T20:38:56.503Z,1006.06
2023-01-19T20:39:06.593Z,1006.08
2023-01-19T20:39:16.252Z,1006.10
2023-01-19T20:39:26.278Z,1006.12
2023-01-19T20:39:36.490Z,1006.11
2023-01-19T20:39:46.241Z,1006.14
2023-01-19T20:39:56.485Z,1006.09
2023-01-19T20:40:06.254Z,1006.12
2023-01-19T20:40:16.492Z,1006.11
2023-01-19T20:40:26.510Z,1006.09
2023-01-19T20:40:36.497Z,1006.13
2023-01-19T20:40:46.515Z,1006.14
2023-01-19T20:40:56.298Z,1006.18
2023-01-19T20:41:06.499Z,1006.17
2023-01-19T20:41:16.499Z,1006.13
2023-01-19T20:41:26.493Z,1006.08
2023-01-19T20:41:36.265Z,1006.11
2023-01-19T20:41:46.496Z,1006.08
2023-01-19T20:41:56.498Z,1006.11
2023-01-19T20:42:06.264Z,1006.09
2023-01-19T20:42:16.524Z,1006.12
2023-01-19T20:42:26.501Z,1006.11
2023-01-19T20:42:36.508Z,1006.15
2023-01-19T20:42:46.508Z,1006.10
2023-01-19T20:42:56.505Z,1006.13
2023-01-19T20:43:06.511Z,1006.15
2023-01-19T20:43:16.501Z,1006.15
2023-01-19T20:43:26.277Z,1006.15
2023-01-19T20:43:36.526Z,1006.17
2023-01-19T20:43:46.270Z,1006.16
2023-01-19T20:43:56.346Z,1006.18
2023-01-19T20:44:06.523Z,1006.19
2023-01-19T20:44:16.555Z,1006.17
2023-01-19T20:44:26.523Z,1006.21
2023-01-19T20:44:36.528Z,1006.19
2023-01-19T20:44:46.278Z,1006.19
2023-01-19T20:44:56.517Z,1006.18
2023-01-19T20:45:06.296Z,1006.18
2023-01-19T20:45:16.283Z,1006.21
2023-01-19T20:45:26.623Z,1006.18
2023-01-19T20:45:36.554Z,1006.15
2023-01-19T20:45:46.620Z,1006.22
2023-01-19T20:45:56.425Z,1006.17
2023-01-19T20:46:06.535Z,1006.16
2023-01-19T20:46:16.663Z,1006.13
2023-01-19T20:46:26.531Z,1006.17
2023-01-19T20:46:36.537Z,1006.18
2023-01-19T20:46:46.744Z,1006.19
2023-01-19T20:46:56.285Z,1006.19
2023-01-19T20:47:06.769Z,1006.22
2023-01-19T20:47:16.379Z,1006.19
2023-01-19T20:47:26.536Z,1006.19
2023-01-19T20:47:36.578Z,1006.19
2023-01-19T20:47:46.530Z,1006.21
2023-01-19T20:47:56.584Z,1006.19
2023-01-19T20:48:06.591Z,1006.22
2023-01-19T20:48:16.355Z,1006.20
2023-01-19T20:48:26.959Z,1006.23
2023-01-19T20:50:26.360Z,1006.20
2023-01-19T20:50:43.276Z,1006.19
2023-01-19T20:51:02.047Z,1006.19
2023-01-19T20:51:12.239Z,1006.22
2023-01-19T20:51:28.863Z,1006.22
2023-01-19T20:51:38.667Z,1006.22
2023-01-19T20:51:48.709Z,1006.18
2023-01-19T20:51:58.663Z,1006.21
2023-01-19T20:52:08.672Z,1006.21
2023-01-19T20:52:18.772Z,1006.25
2023-01-19T20:52:28.680Z,1006.28
2023-01-19T20:52:38.665Z,1006.21
2023-01-19T20:52:48.668Z,1006.27
2023-01-19T20:52:58.672Z,1006.21
2023-01-19T20:53:08.676Z,1006.22
2023-01-19T20:53:18.860Z,1006.23
2023-01-19T20:53:28.677Z,1006.24
2023-01-19T20:53:38.604Z,1006.24
2023-01-19T20:53:48.746Z,1006.21
2023-01-19T20:53:58.684Z,1006.25
2023-01-19T20:54:09.503Z,1006.24
2023-01-19T20:54:18.683Z,1006.27
2023-01-19T20:54:28.684Z,1006.26
2023-01-19T20:54:38.684Z,1006.27
2023-01-19T20:54:48.683Z,1006.28
2023-01-19T20:54:58.679Z,1006.28
2023-01-19T20:55:08.690Z,1006.28
2023-01-19T20:55:18.688Z,1006.29
2023-01-19T20:55:28.684Z,1006.28
2023-01-19T20:55:38.691Z,1006.26
2023-01-19T20:55:48.447Z,1006.24
2023-01-19T20:55:58.696Z,1006.23
2023-01-19T20:56:14.792Z,1006.27
2023-01-19T20:56:24.989Z,1006.26
2023-01-19T20:56:34.767Z,1006.23
2023-01-19T20:56:48.133Z,1006.24
2023-01-19T20:56:58.131Z,1006.29
2023-01-19T20:57:08.128Z,1006.27
2023-01-19T20:57:17.885Z,1006.27
2023-01-19T20:57:27.885Z,1006.27
2023-01-19T20:57:38.167Z,1006.24
2023-01-19T20:57:48.127Z,1006.24
2023-01-19T20:57:57.892Z,1006.23
2023-01-19T20:58:08.123Z,1006.24
2023-01-19T20:58:17.893Z,1006.23
2023-01-19T20:58:28.153Z,1006.25
2023-01-19T20:58:38.151Z,1006.23
2023-01-19T20:58:48.137Z,1006.26
2023-01-19T20:58:58.134Z,1006.25
2023-01-19T20:59:08.134Z,1006.28
2023-01-19T20:59:18.172Z,1006.22
2023-01-19T20:59:28.200Z,1006.26
2023-01-19T20:59:38.205Z,1006.20
2023-01-19T20:59:48.209Z,1006.24
2023-01-19T20:59:58.208Z,1006.24
2023-01-19T21:00:08.198Z,1006.31
2023-01-19T21:00:17.977Z,1006.30
2023-01-19T21:00:28.215Z,1006.27
2023-01-19T21:00:38.240Z,1006.29
2023-01-19T21:00:48.251Z,1006.26
2023-01-19T21:00:58.093Z,1006.26
2023-01-19T21:01:08.494Z,1006.30
2023-01-19T21:01:18.101Z,1006.32
2023-01-19T21:01:28.345Z,1006.27
2023-01-19T21:01:38.364Z,1006.29
2023-01-19T21:01:48.442Z,1006.36
2023-01-19T21:01:58.322Z,1006.34
2023-01-19T21:02:08.209Z,1006.35
2023-01-19T21:02:18.109Z,1006.33
2023-01-19T21:02:28.643Z,1006.29
2023-01-19T21:02:38.141Z,1006.32
2023-01-19T21:02:48.103Z,1006.36
2023-01-19T21:02:58.311Z,1006.33
2023-01-19T21:03:08.078Z,1006.36
2023-01-19T21:03:18.294Z,1006.33
2023-01-19T21:03:28.301Z,1006.32
2023-01-19T21:03:38.306Z,1006.33
2023-01-19T21:03:48.308Z,1006.32
2023-01-19T21:03:58.315Z,1006.31
2023-01-19T21:04:08.309Z,1006.37
2023-01-19T21:04:18.329Z,1006.31
2023-01-19T21:04:28.316Z,1006.35
2023-01-19T21:04:38.317Z,1006.34
2023-01-19T21:04:48.322Z,1006.33
2023-01-19T21:04:58.306Z,1006.36
2023-01-19T21:05:08.308Z,1006.30
2023-01-19T21:05:18.327Z,1006.35
2023-01-19T21:05:28.315Z,1006.33
2023-01-19T21:05:38.324Z,1006.35
2023-01-19T21:05:48.326Z,1006.36
2023-01-19T21:06:04.453Z,1006.40
2023-01-19T21:06:41.408Z,1006.39
2023-01-19T21:07:02.466Z,1006.39
2023-01-19T21:07:26.308Z,1006.36
2023-01-19T21:07:36.391Z,1006.37
2023-01-19T21:07:46.383Z,1006.38
2023-01-19T21:07:56.389Z,1006.36
2023-01-19T21:08:06.402Z,1006.39
2023-01-19T21:08:16.399Z,1006.39
2023-01-19T21:08:26.381Z,1006.39
2023-01-19T21:08:36.154Z,1006.40
2023-01-19T21:08:46.399Z,1006.39
2023-01-19T21:08:56.390Z,1006.42
2023-01-19T21:09:06.185Z,1006.41
2023-01-19T21:09:16.406Z,1006.39
2023-01-19T21:09:26.396Z,1006.44
2023-01-19T21:09:36.394Z,1006.47
2023-01-19T21:09:46.167Z,1006.43
2023-01-19T21:09:56.392Z,1006.44
2023-01-19T21:10:06.409Z,1006.41
2023-01-19T21:10:16.398Z,1006.45
2023-01-19T21:10:26.413Z,1006.46
2023-01-19T21:10:36.402Z,1006.41
2023-01-19T21:10:46.422Z,1006.41
2023-01-19T21:10:56.397Z,1006.46
2023-01-19T21:11:06.418Z,1006.45
2023-01-19T21:11:16.409Z,1006.47
2023-01-19T21:11:26.405Z,1006.45
2023-01-19T21:11:36.422Z,1006.45
2023-01-19T21:11:46.423Z,1006.47
2023-01-19T21:11:57.536Z,1006.44
2023-01-19T21:12:06.412Z,1006.48
2023-01-19T21:12:16.187Z,1006.47
2023-01-19T21:12:26.413Z,1006.46
2023-01-19T21:12:36.417Z,1006.47
2023-01-19T21:12:46.411Z,1006.47
2023-01-19T21:12:56.415Z,1006.45
2023-01-19T21:13:06.420Z,1006.48
2023-01-19T21:13:16.430Z,1006.46
2023-01-19T21:13:26.419Z,1006.50
2023-01-19T21:13:36.187Z,1006.50
2023-01-19T21:13:46.445Z,1006.48
2023-01-19T21:13:56.558Z,1006.44
2023-01-19T21:14:06.425Z,1006.50
2023-01-19T21:14:16.195Z,1006.51
2023-01-19T21:14:26.436Z,1006.45
2023-01-19T21:14:36.437Z,1006.48
2023-01-19T21:14:46.429Z,1006.47
2023-01-19T21:14:56.432Z,1006.46
2023-01-19T21:15:06.222Z,1006.48
2023-01-19T21:15:16.444Z,1006.48
2023-01-19T21:15:26.435Z,1006.50
2023-01-19T21:15:36.451Z,1006.51
2023-01-19T21:15:46.433Z,1006.47
2023-01-19T21:15:56.434Z,1006.48
2023-01-19T21:16:06.470Z,1006.50
2023-01-19T21:16:16.475Z,1006.48
2023-01-19T21:16:26.491Z,1006.51
2023-01-19T21:16:36.489Z,1006.51
2023-01-19T21:16:46.506Z,1006.49
2023-01-19T21:16:56.443Z,1006.49
2023-01-19T21:17:06.463Z,1006.48
2023-01-19T21:17:16.205Z,1006.48
2023-01-19T21:17:26.448Z,1006.53
2023-01-19T21:17:36.556Z,1006.47
2023-01-19T21:17:46.226Z,1006.53
2023-01-19T21:17:56.447Z,1006.52
2023-01-19T21:18:06.455Z,1006.50
2023-01-19T21:18:16.456Z,1006.52
2023-01-19T21:18:26.456Z,1006.52
2023-01-19T21:18:36.216Z,1006.54
2023-01-19T21:18:46.217Z,1006.55
2023-01-19T21:18:56.460Z,1006.51
2023-01-19T21:19:06.472Z,1006.57
2023-01-19T21:19:16.457Z,1006.56
2023-01-19T21:19:26.444Z,1006.57
2023-01-19T21:19:36.222Z,1006.58
2023-01-19T21:19:46.236Z,1006.55
2023-01-19T21:19:56.460Z,1006.56
2023-01-19T21:20:06.462Z,1006.57
2023-01-19T21:20:16.466Z,1006.58
2023-01-19T21:20:26.454Z,1006.55
2023-01-19T21:20:36.462Z,1006.56
2023-01-19T21:20:46.464Z,1006.57
2023-01-19T21:20:56.477Z,1006.55
2023-01-19T21:21:08.004Z,1006.58
2023-01-19T21:21:29.440Z,1006.61
2023-01-19T21:21:31.484Z,1006.57
2023-01-19T21:21:36.465Z,1006.63
2023-01-19T21:21:46.479Z,1006.61
2023-01-19T21:21:56.469Z,1006.61
2023-01-19T21:22:06.473Z,1006.59
2023-01-19T21:22:16.256Z,1006.60
2023-01-19T21:22:29.792Z,1006.61
2023-01-19T21:32:27.585Z,1006.73
2023-01-19T21:42:36.371Z,1006.82
2023-01-19T21:52:46.231Z,1006.94
2023-01-19T22:03:03.725Z,1007.16
2023-01-19T22:13:10.548Z,1007.24
2023-01-19T22:23:20.024Z,1007.31
2023-01-19T22:33:29.775Z,1007.49
2023-01-19T22:43:39.535Z,1007.54
2023-01-19T22:53:49.375Z,1007.61
2023-01-19T23:03:57.547Z,1007.67
2023-01-19T23:14:07.791Z,1007.72
2023-01-19T23:24:17.759Z,1007.84
2023-01-19T23:34:27.129Z,1007.92
2023-01-19T23:44:36.235Z,1007.92
2023-01-19T23:54:45.437Z,1007.94
